sensor_id;sensor_type;location;lat;lon;timestamp;P1;durP1;ratioP1;P2;durP2;ratioP2
7440;SDS011;29616;51.950;8.572;2023-02-23T00:00:14;94.55;;;32.65;;
7440;SDS011;29616;51.950;8.572;2023-02-23T00:02:47;87.53;;;31.48;;
7440;SDS011;29616;51.950;8.572;2023-02-23T00:05:17;105.63;;;34.17;;
7440;SDS011;29616;51.950;8.572;2023-02-23T00:07:47;108.68;;;35.28;;
7440;SDS011;29616;51.950;8.572;2023-02-23T00:10:18;107.38;;;35.08;;
7440;SDS011;29616;51.950;8.572;2023-02-23T00:12:52;108.15;;;35.45;;
7440;SDS011;29616;51.950;8.572;2023-02-23T00:15:23;105.90;;;34.97;;
7440;SDS011;29616;51.950;8.572;2023-02-23T00:17:53;106.32;;;34.67;;
7440;SDS011;29616;51.950;8.572;2023-02-23T00:20:24;103.70;;;34.55;;
7440;SDS011;29616;51.950;8.572;2023-02-23T00:22:53;102.00;;;34.25;;
7440;SDS011;29616;51.950;8.572;2023-02-23T00:25:26;106.57;;;35.33;;
7440;SDS011;29616;51.950;8.572;2023-02-23T00:27:57;93.80;;;33.30;;
7440;SDS011;29616;51.950;8.572;2023-02-23T00:30:28;94.00;;;33.60;;
7440;SDS011;29616;51.950;8.572;2023-02-23T00:32:58;92.72;;;33.30;;
7440;SDS011;29616;51.950;8.572;2023-02-23T00:35:28;103.65;;;34.13;;
7440;SDS011;29616;51.950;8.572;2023-02-23T00:37:59;106.93;;;34.38;;
7440;SDS011;29616;51.950;8.572;2023-02-23T00:40:29;116.43;;;36.42;;
7440;SDS011;29616;51.950;8.572;2023-02-23T00:42:58;110.45;;;34.67;;
7440;SDS011;29616;51.950;8.572;2023-02-23T00:45:30;115.07;;;36.53;;
7440;SDS011;29616;51.950;8.572;2023-02-23T00:48:00;115.43;;;36.95;;
7440;SDS011;29616;51.950;8.572;2023-02-23T00:50:31;118.30;;;37.60;;
7440;SDS011;29616;51.950;8.572;2023-02-23T00:53:01;104.97;;;34.13;;
7440;SDS011;29616;51.950;8.572;2023-02-23T00:55:32;111.47;;;35.65;;
7440;SDS011;29616;51.950;8.572;2023-02-23T00:58:02;112.45;;;35.15;;
7440;SDS011;29616;51.950;8.572;2023-02-23T01:00:34;111.60;;;35.80;;
7440;SDS011;29616;51.950;8.572;2023-02-23T01:03:07;112.10;;;36.15;;
7440;SDS011;29616;51.950;8.572;2023-02-23T01:05:36;115.20;;;36.97;;
7440;SDS011;29616;51.950;8.572;2023-02-23T01:08:05;113.15;;;36.78;;
7440;SDS011;29616;51.950;8.572;2023-02-23T01:10:38;110.93;;;37.45;;
7440;SDS011;29616;51.950;8.572;2023-02-23T01:13:10;111.78;;;36.03;;
7440;SDS011;29616;51.950;8.572;2023-02-23T01:15:41;118.47;;;36.53;;
7440;SDS011;29616;51.950;8.572;2023-02-23T01:18:11;112.82;;;35.70;;
7440;SDS011;29616;51.950;8.572;2023-02-23T01:20:43;114.07;;;37.60;;
7440;SDS011;29616;51.950;8.572;2023-02-23T01:23:12;118.47;;;37.35;;
7440;SDS011;29616;51.950;8.572;2023-02-23T01:25:46;116.15;;;37.13;;
7440;SDS011;29616;51.950;8.572;2023-02-23T01:28:15;121.40;;;37.83;;
7440;SDS011;29616;51.950;8.572;2023-02-23T01:30:47;122.95;;;38.38;;
7440;SDS011;29616;51.950;8.572;2023-02-23T01:33:15;121.45;;;37.75;;
7440;SDS011;29616;51.950;8.572;2023-02-23T01:35:55;120.57;;;37.67;;
7440;SDS011;29616;51.950;8.572;2023-02-23T01:38:26;117.72;;;37.00;;
7440;SDS011;29616;51.950;8.572;2023-02-23T01:40:57;117.17;;;36.43;;
7440;SDS011;29616;51.950;8.572;2023-02-23T01:43:27;113.90;;;36.05;;
7440;SDS011;29616;51.950;8.572;2023-02-23T01:45:57;107.03;;;35.65;;
7440;SDS011;29616;51.950;8.572;2023-02-23T01:48:25;113.63;;;36.58;;
7440;SDS011;29616;51.950;8.572;2023-02-23T01:50:59;123.18;;;37.58;;
7440;SDS011;29616;51.950;8.572;2023-02-23T01:53:35;120.70;;;37.55;;
7440;SDS011;29616;51.950;8.572;2023-02-23T01:56:13;108.60;;;36.05;;
7440;SDS011;29616;51.950;8.572;2023-02-23T01:58:46;122.43;;;38.55;;
7440;SDS011;29616;51.950;8.572;2023-02-23T02:01:23;118.68;;;37.15;;
7440;SDS011;29616;51.950;8.572;2023-02-23T02:03:55;121.68;;;37.95;;
7440;SDS011;29616;51.950;8.572;2023-02-23T02:06:27;119.97;;;37.92;;
7440;SDS011;29616;51.950;8.572;2023-02-23T02:08:58;114.45;;;36.28;;
7440;SDS011;29616;51.950;8.572;2023-02-23T02:11:32;114.68;;;37.42;;
7440;SDS011;29616;51.950;8.572;2023-02-23T02:14:05;105.53;;;35.58;;
7440;SDS011;29616;51.950;8.572;2023-02-23T02:16:42;125.03;;;39.22;;
7440;SDS011;29616;51.950;8.572;2023-02-23T02:26:38;117.50;;;38.50;;
7440;SDS011;29616;51.950;8.572;2023-02-23T02:32:30;113.47;;;36.00;;
7440;SDS011;29616;51.950;8.572;2023-02-23T02:35:42;107.20;;;35.97;;
7440;SDS011;29616;51.950;8.572;2023-02-23T02:38:37;114.00;;;38.05;;
7440;SDS011;29616;51.950;8.572;2023-02-23T02:41:22;123.47;;;38.03;;
7440;SDS011;29616;51.950;8.572;2023-02-23T02:44:06;125.72;;;38.17;;
7440;SDS011;29616;51.950;8.572;2023-02-23T02:46:45;122.95;;;38.33;;
7440;SDS011;29616;51.950;8.572;2023-02-23T02:49:19;122.63;;;37.50;;
7440;SDS011;29616;51.950;8.572;2023-02-23T02:51:57;121.22;;;37.60;;
7440;SDS011;29616;51.950;8.572;2023-02-23T02:54:35;119.28;;;38.03;;
7440;SDS011;29616;51.950;8.572;2023-02-23T02:57:07;117.20;;;36.80;;
7440;SDS011;29616;51.950;8.572;2023-02-23T02:59:43;118.15;;;37.22;;
7440;SDS011;29616;51.950;8.572;2023-02-23T03:02:36;128.07;;;39.88;;
7440;SDS011;29616;51.950;8.572;2023-02-23T03:05:29;134.02;;;39.67;;
7440;SDS011;29616;51.950;8.572;2023-02-23T03:08:27;131.63;;;38.92;;
7440;SDS011;29616;51.950;8.572;2023-02-23T03:11:26;130.80;;;38.70;;
7440;SDS011;29616;51.950;8.572;2023-02-23T03:14:24;127.90;;;38.60;;
7440;SDS011;29616;51.950;8.572;2023-02-23T03:17:21;124.90;;;38.55;;
7440;SDS011;29616;51.950;8.572;2023-02-23T03:20:18;129.73;;;39.45;;
7440;SDS011;29616;51.950;8.572;2023-02-23T03:23:13;129.85;;;39.03;;
7440;SDS011;29616;51.950;8.572;2023-02-23T03:26:07;126.57;;;38.95;;
7440;SDS011;29616;51.950;8.572;2023-02-23T03:29:03;130.32;;;40.63;;
7440;SDS011;29616;51.950;8.572;2023-02-23T03:32:00;122.88;;;40.45;;
7440;SDS011;29616;51.950;8.572;2023-02-23T03:34:56;125.10;;;37.80;;
7440;SDS011;29616;51.950;8.572;2023-02-23T03:37:51;125.88;;;37.78;;
7440;SDS011;29616;51.950;8.572;2023-02-23T03:40:47;126.03;;;36.63;;
7440;SDS011;29616;51.950;8.572;2023-02-23T03:43:36;127.93;;;39.38;;
7440;SDS011;29616;51.950;8.572;2023-02-23T03:46:33;125.88;;;38.65;;
7440;SDS011;29616;51.950;8.572;2023-02-23T03:49:24;123.13;;;39.50;;
7440;SDS011;29616;51.950;8.572;2023-02-23T03:52:15;122.22;;;39.17;;
7440;SDS011;29616;51.950;8.572;2023-02-23T03:55:10;122.40;;;39.35;;
7440;SDS011;29616;51.950;8.572;2023-02-23T03:58:02;129.52;;;39.78;;
7440;SDS011;29616;51.950;8.572;2023-02-23T04:00:57;130.70;;;39.63;;
7440;SDS011;29616;51.950;8.572;2023-02-23T04:03:48;122.47;;;36.83;;
7440;SDS011;29616;51.950;8.572;2023-02-23T04:06:38;126.88;;;39.03;;
7440;SDS011;29616;51.950;8.572;2023-02-23T04:09:29;127.32;;;38.53;;
7440;SDS011;29616;51.950;8.572;2023-02-23T04:12:19;126.10;;;38.58;;
7440;SDS011;29616;51.950;8.572;2023-02-23T04:15:12;125.20;;;38.10;;
7440;SDS011;29616;51.950;8.572;2023-02-23T04:17:50;121.15;;;37.60;;
7440;SDS011;29616;51.950;8.572;2023-02-23T04:20:23;118.90;;;37.50;;
7440;SDS011;29616;51.950;8.572;2023-02-23T04:22:53;116.47;;;37.53;;
7440;SDS011;29616;51.950;8.572;2023-02-23T04:25:24;109.60;;;36.50;;
7440;SDS011;29616;51.950;8.572;2023-02-23T04:27:53;116.45;;;38.05;;
7440;SDS011;29616;51.950;8.572;2023-02-23T04:30:23;119.05;;;39.75;;
7440;SDS011;29616;51.950;8.572;2023-02-23T04:32:54;117.07;;;37.22;;
7440;SDS011;29616;51.950;8.572;2023-02-23T04:35:27;118.93;;;37.17;;
7440;SDS011;29616;51.950;8.572;2023-02-23T04:37:57;123.68;;;38.28;;
7440;SDS011;29616;51.950;8.572;2023-02-23T04:40:29;120.20;;;37.58;;
7440;SDS011;29616;51.950;8.572;2023-02-23T04:42:58;115.35;;;37.03;;
7440;SDS011;29616;51.950;8.572;2023-02-23T04:45:27;114.18;;;36.95;;
7440;SDS011;29616;51.950;8.572;2023-02-23T04:47:57;114.85;;;36.88;;
7440;SDS011;29616;51.950;8.572;2023-02-23T04:50:28;109.53;;;36.90;;
7440;SDS011;29616;51.950;8.572;2023-02-23T04:52:58;119.97;;;37.57;;
7440;SDS011;29616;51.950;8.572;2023-02-23T04:55:27;113.32;;;37.40;;
7440;SDS011;29616;51.950;8.572;2023-02-23T04:57:58;123.13;;;38.42;;
7440;SDS011;29616;51.950;8.572;2023-02-23T05:00:29;126.50;;;38.83;;
7440;SDS011;29616;51.950;8.572;2023-02-23T05:03:00;118.65;;;36.40;;
7440;SDS011;29616;51.950;8.572;2023-02-23T05:05:32;123.88;;;38.03;;
7440;SDS011;29616;51.950;8.572;2023-02-23T05:08:01;124.35;;;38.13;;
7440;SDS011;29616;51.950;8.572;2023-02-23T05:10:32;131.07;;;41.90;;
7440;SDS011;29616;51.950;8.572;2023-02-23T05:13:04;128.55;;;38.00;;
7440;SDS011;29616;51.950;8.572;2023-02-23T05:15:34;125.90;;;38.50;;
7440;SDS011;29616;51.950;8.572;2023-02-23T05:18:02;126.75;;;38.30;;
7440;SDS011;29616;51.950;8.572;2023-02-23T05:20:33;123.05;;;37.47;;
7440;SDS011;29616;51.950;8.572;2023-02-23T05:23:01;121.68;;;37.03;;
7440;SDS011;29616;51.950;8.572;2023-02-23T05:25:32;125.90;;;39.08;;
7440;SDS011;29616;51.950;8.572;2023-02-23T05:28:02;123.80;;;38.45;;
7440;SDS011;29616;51.950;8.572;2023-02-23T05:30:32;122.95;;;37.97;;
7440;SDS011;29616;51.950;8.572;2023-02-23T05:33:02;130.57;;;39.30;;
7440;SDS011;29616;51.950;8.572;2023-02-23T05:35:33;128.55;;;39.33;;
7440;SDS011;29616;51.950;8.572;2023-02-23T05:38:02;127.97;;;40.38;;
7440;SDS011;29616;51.950;8.572;2023-02-23T05:40:30;122.50;;;37.42;;
7440;SDS011;29616;51.950;8.572;2023-02-23T05:42:59;125.57;;;38.15;;
7440;SDS011;29616;51.950;8.572;2023-02-23T05:45:29;126.53;;;38.20;;
7440;SDS011;29616;51.950;8.572;2023-02-23T05:47:59;119.10;;;38.28;;
7440;SDS011;29616;51.950;8.572;2023-02-23T05:50:29;116.78;;;36.92;;
7440;SDS011;29616;51.950;8.572;2023-02-23T05:53:00;123.32;;;38.42;;
7440;SDS011;29616;51.950;8.572;2023-02-23T05:55:28;122.07;;;38.47;;
7440;SDS011;29616;51.950;8.572;2023-02-23T05:57:57;131.80;;;39.65;;
7440;SDS011;29616;51.950;8.572;2023-02-23T06:00:26;127.72;;;38.83;;
7440;SDS011;29616;51.950;8.572;2023-02-23T06:02:55;130.98;;;39.60;;
7440;SDS011;29616;51.950;8.572;2023-02-23T06:05:27;119.68;;;38.65;;
7440;SDS011;29616;51.950;8.572;2023-02-23T06:07:55;127.90;;;39.20;;
7440;SDS011;29616;51.950;8.572;2023-02-23T06:10:26;123.60;;;37.92;;
7440;SDS011;29616;51.950;8.572;2023-02-23T06:12:55;121.40;;;38.10;;
7440;SDS011;29616;51.950;8.572;2023-02-23T06:15:24;119.57;;;37.25;;
7440;SDS011;29616;51.950;8.572;2023-02-23T06:17:56;123.50;;;37.55;;
7440;SDS011;29616;51.950;8.572;2023-02-23T06:20:26;125.25;;;38.47;;
7440;SDS011;29616;51.950;8.572;2023-02-23T06:22:55;121.07;;;38.88;;
7440;SDS011;29616;51.950;8.572;2023-02-23T06:25:23;118.18;;;37.38;;
7440;SDS011;29616;51.950;8.572;2023-02-23T06:27:52;112.50;;;37.83;;
7440;SDS011;29616;51.950;8.572;2023-02-23T06:30:22;120.77;;;39.27;;
7440;SDS011;29616;51.950;8.572;2023-02-23T06:32:51;121.88;;;38.90;;
7440;SDS011;29616;51.950;8.572;2023-02-23T06:35:21;113.55;;;37.38;;
7440;SDS011;29616;51.950;8.572;2023-02-23T06:37:52;118.07;;;38.20;;
7440;SDS011;29616;51.950;8.572;2023-02-23T06:40:21;121.13;;;37.95;;
7440;SDS011;29616;51.950;8.572;2023-02-23T06:42:52;117.30;;;36.72;;
7440;SDS011;29616;51.950;8.572;2023-02-23T06:45:21;124.63;;;39.05;;
7440;SDS011;29616;51.950;8.572;2023-02-23T06:47:52;127.63;;;38.65;;
7440;SDS011;29616;51.950;8.572;2023-02-23T06:50:20;124.45;;;39.33;;
7440;SDS011;29616;51.950;8.572;2023-02-23T06:52:50;121.15;;;38.90;;
7440;SDS011;29616;51.950;8.572;2023-02-23T06:55:20;124.60;;;38.53;;
7440;SDS011;29616;51.950;8.572;2023-02-23T06:57:53;126.57;;;38.85;;
7440;SDS011;29616;51.950;8.572;2023-02-23T07:00:21;127.20;;;41.20;;
7440;SDS011;29616;51.950;8.572;2023-02-23T07:02:53;123.72;;;38.25;;
7440;SDS011;29616;51.950;8.572;2023-02-23T07:05:24;120.57;;;37.63;;
7440;SDS011;29616;51.950;8.572;2023-02-23T07:07:54;124.30;;;38.65;;
7440;SDS011;29616;51.950;8.572;2023-02-23T07:10:24;123.13;;;39.17;;
7440;SDS011;29616;51.950;8.572;2023-02-23T07:12:55;121.35;;;38.17;;
7440;SDS011;29616;51.950;8.572;2023-02-23T07:15:25;120.35;;;38.13;;
7440;SDS011;29616;51.950;8.572;2023-02-23T07:17:54;116.45;;;38.08;;
7440;SDS011;29616;51.950;8.572;2023-02-23T07:20:24;119.68;;;39.28;;
7440;SDS011;29616;51.950;8.572;2023-02-23T07:22:53;122.47;;;39.55;;
7440;SDS011;29616;51.950;8.572;2023-02-23T07:25:22;123.45;;;39.33;;
7440;SDS011;29616;51.950;8.572;2023-02-23T07:27:55;123.70;;;38.67;;
7440;SDS011;29616;51.950;8.572;2023-02-23T07:30:25;119.47;;;38.83;;
7440;SDS011;29616;51.950;8.572;2023-02-23T07:32:54;129.38;;;41.53;;
7440;SDS011;29616;51.950;8.572;2023-02-23T07:35:22;117.38;;;38.10;;
7440;SDS011;29616;51.950;8.572;2023-02-23T07:37:51;124.32;;;41.80;;
7440;SDS011;29616;51.950;8.572;2023-02-23T07:40:22;117.93;;;37.25;;
7440;SDS011;29616;51.950;8.572;2023-02-23T07:42:55;109.20;;;36.95;;
7440;SDS011;29616;51.950;8.572;2023-02-23T07:45:24;117.93;;;37.70;;
7440;SDS011;29616;51.950;8.572;2023-02-23T07:47:53;123.07;;;39.15;;
7440;SDS011;29616;51.950;8.572;2023-02-23T07:50:21;120.13;;;38.83;;
7440;SDS011;29616;51.950;8.572;2023-02-23T07:52:51;129.80;;;38.83;;
7440;SDS011;29616;51.950;8.572;2023-02-23T07:55:21;124.50;;;38.85;;
7440;SDS011;29616;51.950;8.572;2023-02-23T07:57:51;120.70;;;37.55;;
7440;SDS011;29616;51.950;8.572;2023-02-23T08:00:22;125.80;;;40.78;;
7440;SDS011;29616;51.950;8.572;2023-02-23T08:02:52;130.57;;;39.90;;
7440;SDS011;29616;51.950;8.572;2023-02-23T08:05:21;127.78;;;37.97;;
7440;SDS011;29616;51.950;8.572;2023-02-23T08:07:53;128.15;;;38.88;;
7440;SDS011;29616;51.950;8.572;2023-02-23T08:10:23;133.65;;;39.83;;
7440;SDS011;29616;51.950;8.572;2023-02-23T08:12:54;130.85;;;38.95;;
7440;SDS011;29616;51.950;8.572;2023-02-23T08:15:26;134.00;;;39.47;;
7440;SDS011;29616;51.950;8.572;2023-02-23T08:17:57;116.18;;;37.75;;
7440;SDS011;29616;51.950;8.572;2023-02-23T08:20:26;116.07;;;36.35;;
7440;SDS011;29616;51.950;8.572;2023-02-23T08:22:56;133.00;;;39.05;;
7440;SDS011;29616;51.950;8.572;2023-02-23T08:25:26;136.85;;;39.83;;
7440;SDS011;29616;51.950;8.572;2023-02-23T08:27:56;132.27;;;40.03;;
7440;SDS011;29616;51.950;8.572;2023-02-23T08:30:31;131.68;;;39.63;;
7440;SDS011;29616;51.950;8.572;2023-02-23T08:33:02;128.70;;;38.20;;
7440;SDS011;29616;51.950;8.572;2023-02-23T08:35:31;130.55;;;39.65;;
7440;SDS011;29616;51.950;8.572;2023-02-23T08:38:01;136.00;;;39.88;;
7440;SDS011;29616;51.950;8.572;2023-02-23T08:40:30;133.43;;;39.22;;
7440;SDS011;29616;51.950;8.572;2023-02-23T08:43:00;135.38;;;39.72;;
7440;SDS011;29616;51.950;8.572;2023-02-23T08:45:32;132.38;;;40.00;;
7440;SDS011;29616;51.950;8.572;2023-02-23T08:48:01;133.93;;;39.60;;
7440;SDS011;29616;51.950;8.572;2023-02-23T08:50:30;118.03;;;35.47;;
7440;SDS011;29616;51.950;8.572;2023-02-23T08:53:00;125.85;;;38.65;;
7440;SDS011;29616;51.950;8.572;2023-02-23T08:55:30;130.75;;;39.50;;
7440;SDS011;29616;51.950;8.572;2023-02-23T08:58:00;128.38;;;38.47;;
7440;SDS011;29616;51.950;8.572;2023-02-23T09:00:31;118.27;;;37.63;;
7440;SDS011;29616;51.950;8.572;2023-02-23T09:03:03;128.25;;;37.92;;
7440;SDS011;29616;51.950;8.572;2023-02-23T09:05:32;134.88;;;40.63;;
7440;SDS011;29616;51.950;8.572;2023-02-23T09:08:05;135.18;;;40.17;;
7440;SDS011;29616;51.950;8.572;2023-02-23T09:10:35;132.77;;;39.60;;
7440;SDS011;29616;51.950;8.572;2023-02-23T09:13:05;134.15;;;40.13;;
7440;SDS011;29616;51.950;8.572;2023-02-23T09:15:36;131.15;;;39.90;;
7440;SDS011;29616;51.950;8.572;2023-02-23T09:18:05;131.75;;;39.55;;
7440;SDS011;29616;51.950;8.572;2023-02-23T09:20:36;133.63;;;40.08;;
7440;SDS011;29616;51.950;8.572;2023-02-23T09:23:09;133.23;;;39.47;;
7440;SDS011;29616;51.950;8.572;2023-02-23T09:25:39;134.93;;;40.45;;
7440;SDS011;29616;51.950;8.572;2023-02-23T09:28:10;131.57;;;41.10;;
7440;SDS011;29616;51.950;8.572;2023-02-23T09:30:41;132.43;;;39.97;;
7440;SDS011;29616;51.950;8.572;2023-02-23T09:33:13;127.40;;;39.65;;
7440;SDS011;29616;51.950;8.572;2023-02-23T09:35:42;123.07;;;39.75;;
7440;SDS011;29616;51.950;8.572;2023-02-23T09:38:12;113.75;;;37.35;;
7440;SDS011;29616;51.950;8.572;2023-02-23T09:40:43;118.57;;;38.28;;
7440;SDS011;29616;51.950;8.572;2023-02-23T09:43:17;121.32;;;38.28;;
7440;SDS011;29616;51.950;8.572;2023-02-23T09:45:56;125.88;;;38.30;;
7440;SDS011;29616;51.950;8.572;2023-02-23T09:48:37;126.30;;;39.05;;
7440;SDS011;29616;51.950;8.572;2023-02-23T09:51:07;127.60;;;38.97;;
7440;SDS011;29616;51.950;8.572;2023-02-23T09:53:46;122.60;;;39.08;;
7440;SDS011;29616;51.950;8.572;2023-02-23T09:56:23;127.93;;;39.58;;
7440;SDS011;29616;51.950;8.572;2023-02-23T09:59:03;127.00;;;39.42;;
7440;SDS011;29616;51.950;8.572;2023-02-23T10:01:50;136.27;;;41.88;;
7440;SDS011;29616;51.950;8.572;2023-02-23T10:04:35;125.45;;;37.88;;
7440;SDS011;29616;51.950;8.572;2023-02-23T10:07:13;127.13;;;38.75;;
7440;SDS011;29616;51.950;8.572;2023-02-23T10:09:55;137.38;;;40.83;;
7440;SDS011;29616;51.950;8.572;2023-02-23T10:12:34;134.20;;;41.53;;
7440;SDS011;29616;51.950;8.572;2023-02-23T10:17:57;134.30;;;41.08;;
7440;SDS011;29616;51.950;8.572;2023-02-23T10:20:34;139.07;;;42.35;;
7440;SDS011;29616;51.950;8.572;2023-02-23T10:23:16;138.55;;;41.47;;
7440;SDS011;29616;51.950;8.572;2023-02-23T10:25:57;121.85;;;37.88;;
7440;SDS011;29616;51.950;8.572;2023-02-23T10:28:32;126.47;;;39.95;;
7440;SDS011;29616;51.950;8.572;2023-02-23T10:31:03;120.80;;;38.63;;
7440;SDS011;29616;51.950;8.572;2023-02-23T10:33:49;124.90;;;39.83;;
7440;SDS011;29616;51.950;8.572;2023-02-23T10:36:27;120.65;;;38.80;;
7440;SDS011;29616;51.950;8.572;2023-02-23T10:39:05;120.45;;;38.38;;
7440;SDS011;29616;51.950;8.572;2023-02-23T10:41:35;127.60;;;39.38;;
7440;SDS011;29616;51.950;8.572;2023-02-23T10:44:10;119.45;;;37.97;;
7440;SDS011;29616;51.950;8.572;2023-02-23T10:46:49;127.93;;;39.10;;
7440;SDS011;29616;51.950;8.572;2023-02-23T10:49:26;127.35;;;38.78;;
7440;SDS011;29616;51.950;8.572;2023-02-23T10:52:03;124.07;;;38.10;;
7440;SDS011;29616;51.950;8.572;2023-02-23T10:54:39;113.40;;;38.53;;
7440;SDS011;29616;51.950;8.572;2023-02-23T10:57:22;118.77;;;38.43;;
7440;SDS011;29616;51.950;8.572;2023-02-23T10:59:59;121.88;;;38.03;;
7440;SDS011;29616;51.950;8.572;2023-02-23T11:02:54;125.72;;;39.33;;
7440;SDS011;29616;51.950;8.572;2023-02-23T11:05:28;134.20;;;39.72;;
7440;SDS011;29616;51.950;8.572;2023-02-23T11:08:16;134.10;;;39.67;;
7440;SDS011;29616;51.950;8.572;2023-02-23T11:10:55;134.80;;;39.88;;
7440;SDS011;29616;51.950;8.572;2023-02-23T11:13:32;133.90;;;40.05;;
7440;SDS011;29616;51.950;8.572;2023-02-23T11:16:05;127.20;;;39.17;;
7440;SDS011;29616;51.950;8.572;2023-02-23T11:18:40;127.90;;;39.88;;
7440;SDS011;29616;51.950;8.572;2023-02-23T11:21:23;125.35;;;38.20;;
7440;SDS011;29616;51.950;8.572;2023-02-23T11:24:00;128.93;;;38.90;;
7440;SDS011;29616;51.950;8.572;2023-02-23T11:26:41;131.80;;;39.72;;
7440;SDS011;29616;51.950;8.572;2023-02-23T11:29:15;128.48;;;39.28;;
7440;SDS011;29616;51.950;8.572;2023-02-23T11:31:53;126.50;;;38.55;;
7440;SDS011;29616;51.950;8.572;2023-02-23T11:34:27;125.60;;;39.00;;
7440;SDS011;29616;51.950;8.572;2023-02-23T11:37:04;131.38;;;39.00;;
7440;SDS011;29616;51.950;8.572;2023-02-23T11:39:49;128.30;;;40.35;;
7440;SDS011;29616;51.950;8.572;2023-02-23T11:42:20;128.43;;;39.10;;
7440;SDS011;29616;51.950;8.572;2023-02-23T11:45:01;128.65;;;40.30;;
7440;SDS011;29616;51.950;8.572;2023-02-23T11:47:32;129.43;;;39.92;;
7440;SDS011;29616;51.950;8.572;2023-02-23T11:50:06;127.25;;;39.15;;
7440;SDS011;29616;51.950;8.572;2023-02-23T11:52:51;132.70;;;40.35;;
7440;SDS011;29616;51.950;8.572;2023-02-23T11:55:30;129.85;;;39.67;;
7440;SDS011;29616;51.950;8.572;2023-02-23T11:58:06;127.07;;;39.03;;
7440;SDS011;29616;51.950;8.572;2023-02-23T12:00:38;130.43;;;40.53;;
7440;SDS011;29616;51.950;8.572;2023-02-23T12:03:19;129.48;;;39.60;;
7440;SDS011;29616;51.950;8.572;2023-02-23T12:05:53;127.75;;;39.40;;
7440;SDS011;29616;51.950;8.572;2023-02-23T12:08:30;131.60;;;40.72;;
7440;SDS011;29616;51.950;8.572;2023-02-23T12:11:06;132.05;;;40.85;;
7440;SDS011;29616;51.950;8.572;2023-02-23T12:13:40;135.23;;;41.33;;
7440;SDS011;29616;51.950;8.572;2023-02-23T12:16:16;135.73;;;40.95;;
7440;SDS011;29616;51.950;8.572;2023-02-23T12:18:51;125.75;;;39.75;;
7440;SDS011;29616;51.950;8.572;2023-02-23T12:21:28;132.68;;;39.58;;
7440;SDS011;29616;51.950;8.572;2023-02-23T12:24:09;131.70;;;39.55;;
7440;SDS011;29616;51.950;8.572;2023-02-23T12:26:44;132.55;;;41.60;;
7440;SDS011;29616;51.950;8.572;2023-02-23T12:29:20;131.38;;;40.15;;
7440;SDS011;29616;51.950;8.572;2023-02-23T12:31:56;133.05;;;40.28;;
7440;SDS011;29616;51.950;8.572;2023-02-23T12:34:31;134.82;;;42.97;;
7440;SDS011;29616;51.950;8.572;2023-02-23T12:37:15;137.43;;;41.38;;
7440;SDS011;29616;51.950;8.572;2023-02-23T12:40:02;135.95;;;42.28;;
7440;SDS011;29616;51.950;8.572;2023-02-23T12:42:42;130.50;;;40.40;;
7440;SDS011;29616;51.950;8.572;2023-02-23T12:45:21;136.52;;;43.65;;
7440;SDS011;29616;51.950;8.572;2023-02-23T12:48:10;129.70;;;40.28;;
7440;SDS011;29616;51.950;8.572;2023-02-23T12:50:49;129.18;;;41.50;;
7440;SDS011;29616;51.950;8.572;2023-02-23T12:53:21;132.77;;;41.45;;
7440;SDS011;29616;51.950;8.572;2023-02-23T12:56:01;133.50;;;41.88;;
7440;SDS011;29616;51.950;8.572;2023-02-23T12:58:45;128.25;;;39.80;;
7440;SDS011;29616;51.950;8.572;2023-02-23T13:01:25;132.73;;;41.15;;
7440;SDS011;29616;51.950;8.572;2023-02-23T13:04:07;130.63;;;40.22;;
7440;SDS011;29616;51.950;8.572;2023-02-23T13:09:32;126.85;;;40.50;;
7440;SDS011;29616;51.950;8.572;2023-02-23T13:12:16;131.98;;;40.38;;
7440;SDS011;29616;51.950;8.572;2023-02-23T13:14:54;132.90;;;40.75;;
7440;SDS011;29616;51.950;8.572;2023-02-23T13:17:32;141.55;;;41.30;;
7440;SDS011;29616;51.950;8.572;2023-02-23T13:20:15;140.52;;;42.50;;
7440;SDS011;29616;51.950;8.572;2023-02-23T13:22:51;136.30;;;40.60;;
7440;SDS011;29616;51.950;8.572;2023-02-23T13:25:29;142.02;;;41.67;;
7440;SDS011;29616;51.950;8.572;2023-02-23T13:28:12;139.23;;;41.42;;
7440;SDS011;29616;51.950;8.572;2023-02-23T13:30:46;137.27;;;40.72;;
7440;SDS011;29616;51.950;8.572;2023-02-23T13:33:22;137.23;;;42.13;;
7440;SDS011;29616;51.950;8.572;2023-02-23T13:36:09;135.48;;;40.28;;
7440;SDS011;29616;51.950;8.572;2023-02-23T13:38:43;130.37;;;40.50;;
7440;SDS011;29616;51.950;8.572;2023-02-23T13:41:32;130.60;;;39.33;;
7440;SDS011;29616;51.950;8.572;2023-02-23T13:44:08;97.75;;;31.75;;
7440;SDS011;29616;51.950;8.572;2023-02-23T13:46:47;125.33;;;40.50;;
7440;SDS011;29616;51.950;8.572;2023-02-23T13:49:22;126.72;;;40.97;;
7440;SDS011;29616;51.950;8.572;2023-02-23T13:52:08;134.32;;;41.58;;
7440;SDS011;29616;51.950;8.572;2023-02-23T13:54:50;130.73;;;41.15;;
7440;SDS011;29616;51.950;8.572;2023-02-23T13:57:25;129.80;;;39.60;;
7440;SDS011;29616;51.950;8.572;2023-02-23T13:59:58;135.60;;;40.78;;
7440;SDS011;29616;51.950;8.572;2023-02-23T14:02:38;134.50;;;41.20;;
7440;SDS011;29616;51.950;8.572;2023-02-23T14:05:15;139.15;;;41.65;;
7440;SDS011;29616;51.950;8.572;2023-02-23T14:07:50;127.05;;;38.63;;
7440;SDS011;29616;51.950;8.572;2023-02-23T14:10:20;132.00;;;39.35;;
7440;SDS011;29616;51.950;8.572;2023-02-23T14:13:05;133.23;;;40.07;;
7440;SDS011;29616;51.950;8.572;2023-02-23T14:18:52;134.30;;;41.30;;
7440;SDS011;29616;51.950;8.572;2023-02-23T14:21:34;135.70;;;40.83;;
7440;SDS011;29616;51.950;8.572;2023-02-23T14:24:13;135.85;;;41.20;;
7440;SDS011;29616;51.950;8.572;2023-02-23T14:30:19;139.80;;;41.83;;
7440;SDS011;29616;51.950;8.572;2023-02-23T14:32:52;134.18;;;40.85;;
7440;SDS011;29616;51.950;8.572;2023-02-23T14:35:35;138.43;;;41.28;;
7440;SDS011;29616;51.950;8.572;2023-02-23T14:38:15;139.95;;;41.33;;
7440;SDS011;29616;51.950;8.572;2023-02-23T14:41:12;140.65;;;42.38;;
7440;SDS011;29616;51.950;8.572;2023-02-23T14:43:42;141.60;;;42.95;;
7440;SDS011;29616;51.950;8.572;2023-02-23T14:46:16;139.20;;;41.13;;
7440;SDS011;29616;51.950;8.572;2023-02-23T14:48:58;141.85;;;41.90;;
7440;SDS011;29616;51.950;8.572;2023-02-23T14:51:35;133.43;;;41.83;;
7440;SDS011;29616;51.950;8.572;2023-02-23T14:54:12;137.48;;;41.05;;
7440;SDS011;29616;51.950;8.572;2023-02-23T14:56:58;141.45;;;42.03;;
7440;SDS011;29616;51.950;8.572;2023-02-23T14:59:36;133.55;;;40.15;;
7440;SDS011;29616;51.950;8.572;2023-02-23T15:02:08;135.52;;;40.35;;
7440;SDS011;29616;51.950;8.572;2023-02-23T15:04:41;135.50;;;41.55;;
7440;SDS011;29616;51.950;8.572;2023-02-23T15:07:13;136.05;;;41.20;;
7440;SDS011;29616;51.950;8.572;2023-02-23T15:09:51;140.80;;;40.00;;
7440;SDS011;29616;51.950;8.572;2023-02-23T15:12:24;133.55;;;41.28;;
7440;SDS011;29616;51.950;8.572;2023-02-23T15:14:56;137.43;;;41.42;;
7440;SDS011;29616;51.950;8.572;2023-02-23T15:17:29;132.63;;;39.78;;
7440;SDS011;29616;51.950;8.572;2023-02-23T15:20:04;132.07;;;40.42;;
7440;SDS011;29616;51.950;8.572;2023-02-23T15:22:44;133.63;;;42.30;;
7440;SDS011;29616;51.950;8.572;2023-02-23T15:25:22;133.95;;;40.30;;
7440;SDS011;29616;51.950;8.572;2023-02-23T15:27:53;139.27;;;41.30;;
7440;SDS011;29616;51.950;8.572;2023-02-23T15:30:25;130.97;;;40.13;;